createdAt,value
2022-08-16T00:00:29.541Z,94627.00
2022-08-16T00:03:06.948Z,94629.66
2022-08-16T00:05:47.960Z,94622.38
2022-08-16T00:08:36.468Z,94623.06
2022-08-16T00:11:01.869Z,94629.25
2022-08-16T00:13:28.847Z,94630.34
2022-08-16T00:15:55.540Z,94628.69
2022-08-16T00:18:29.600Z,94622.38
2022-08-16T00:20:57.916Z,94624.25
2022-08-16T00:23:34.668Z,94618.28
2022-08-16T00:26:36.486Z,94621.94
2022-08-16T00:28:55.084Z,94627.31
2022-08-16T00:31:23.978Z,94621.66
2022-08-16T00:33:51.103Z,94618.38
2022-08-16T00:36:17.864Z,94617.97
2022-08-16T00:38:44.512Z,94618.19
2022-08-16T00:41:11.364Z,94612.88
2022-08-16T00:43:42.880Z,94622.22
2022-08-16T00:46:35.179Z,94618.66
2022-08-16T00:49:17.648Z,94619.56
2022-08-16T00:51:55.160Z,94624.09
2022-08-16T00:54:26.811Z,94619.06
2022-08-16T00:56:59.847Z,94617.31
2022-08-16T00:59:32.860Z,94612.94
2022-08-16T01:02:30.780Z,94618.66
2022-08-16T01:05:09.707Z,94612.47
2022-08-16T01:07:50.837Z,94614.63
2022-08-16T01:10:21.153Z,94611.25
2022-08-16T01:13:00.415Z,94613.38
2022-08-16T01:15:27.961Z,94608.06
2022-08-16T01:17:58.273Z,94613.50
2022-08-16T01:20:30.343Z,94605.56
2022-08-16T01:23:01.041Z,94604.59
2022-08-16T01:25:36.307Z,94603.34
2022-08-16T01:28:10.449Z,94595.81
2022-08-16T01:30:54.078Z,94602.19
2022-08-16T01:33:22.589Z,94593.38
2022-08-16T01:35:56.390Z,94604.22
2022-08-16T01:38:40.009Z,94603.78
2022-08-16T01:41:21.004Z,94598.31
2022-08-16T01:43:53.507Z,94610.97
2022-08-16T01:46:39.310Z,94605.13
2022-08-16T01:49:18.799Z,94606.81
2022-08-16T01:51:50.614Z,94608.88
2022-08-16T01:54:17.421Z,94601.25
2022-08-16T01:56:58.578Z,94602.25
2022-08-16T01:59:27.650Z,94603.88
2022-08-16T02:02:00.070Z,94609.34
2022-08-16T02:04:49.801Z,94606.44
2022-08-16T02:07:18.130Z,94603.34
2022-08-16T02:09:57.124Z,94603.59
2022-08-16T02:12:50.216Z,94608.75
2022-08-16T02:15:14.930Z,94600.25
2022-08-16T02:17:42.673Z,94597.72
2022-08-16T02:20:11.862Z,94593.59
2022-08-16T02:22:38.931Z,94597.06
2022-08-16T02:25:10.658Z,94592.03
2022-08-16T02:27:40.995Z,94591.56
2022-08-16T02:30:37.246Z,94586.75
2022-08-16T02:33:05.221Z,94584.72
2022-08-16T02:35:33.201Z,94584.38
2022-08-16T02:38:01.623Z,94585.13
2022-08-16T02:40:35.302Z,94582.13
2022-08-16T02:43:02.798Z,94585.47
2022-08-16T02:45:29.540Z,94582.53
2022-08-16T02:48:01.367Z,94580.75
2022-08-16T02:51:04.092Z,94581.78
2022-08-16T02:53:31.523Z,94579.28
2022-08-16T02:55:58.812Z,94582.94
2022-08-16T02:58:26.683Z,94578.81
2022-08-16T03:00:56.166Z,94583.38
2022-08-16T03:03:25.910Z,94587.81
2022-08-16T03:05:53.495Z,94579.78
2022-08-16T03:08:49.851Z,94580.84
2022-08-16T03:11:17.912Z,94583.25
2022-08-16T03:13:53.129Z,94587.81
2022-08-16T03:16:38.789Z,94580.84
2022-08-16T03:19:10.213Z,94575.56
2022-08-16T03:21:38.100Z,94571.94
2022-08-16T03:24:28.969Z,94573.97
2022-08-16T03:26:57.971Z,94578.94
2022-08-16T03:29:30.841Z,94580.28
2022-08-16T03:32:01.892Z,94577.19
2022-08-16T03:34:31.259Z,94577.06
2022-08-16T03:36:59.513Z,94587.19
2022-08-16T03:39:27.120Z,94590.31
2022-08-16T03:41:59.996Z,94600.31
2022-08-16T03:44:43.423Z,94611.16
2022-08-16T03:47:12.092Z,94605.91
2022-08-16T03:49:38.975Z,94593.72
2022-08-16T03:52:07.175Z,94592.94
2022-08-16T03:54:35.658Z,94587.31
2022-08-16T03:57:05.017Z,94587.28
2022-08-16T03:59:32.196Z,94587.53
2022-08-16T04:02:00.830Z,94583.00
2022-08-16T04:04:33.045Z,94583.16
2022-08-16T04:07:03.360Z,94580.66
2022-08-16T04:09:35.694Z,94580.66
2022-08-16T04:12:10.760Z,94581.34
2022-08-16T04:14:50.863Z,94578.53
2022-08-16T04:17:18.460Z,94577.78
2022-08-16T04:19:46.817Z,94578.06
2022-08-16T04:22:17.113Z,94577.09
2022-08-16T04:24:54.056Z,94583.84
2022-08-16T04:27:22.275Z,94576.34
2022-08-16T04:29:52.273Z,94573.41
2022-08-16T04:32:19.680Z,94581.22
2022-08-16T04:34:46.751Z,94575.75
2022-08-16T04:37:14.418Z,94581.78
2022-08-16T04:39:47.471Z,94577.22
2022-08-16T04:42:25.991Z,94583.38
2022-08-16T04:44:55.746Z,94577.97
2022-08-16T04:47:25.460Z,94570.38
2022-08-16T04:49:58.950Z,94570.84
2022-08-16T04:52:32.834Z,94578.34
2022-08-16T04:55:11.888Z,94571.38
2022-08-16T04:57:41.401Z,94572.56
2022-08-16T05:00:32.077Z,94586.22
2022-08-16T05:03:09.637Z,94587.78
2022-08-16T05:05:45.515Z,94588.00
2022-08-16T05:08:30.252Z,94588.53
2022-08-16T05:11:00.612Z,94581.59
2022-08-16T05:13:40.753Z,94585.13
2022-08-16T05:16:29.907Z,94583.97
2022-08-16T05:19:00.001Z,94581.78
2022-08-16T05:21:27.475Z,94588.50
2022-08-16T05:24:02.958Z,94576.94
2022-08-16T05:26:34.788Z,94575.31
2022-08-16T05:29:04.392Z,94570.41
2022-08-16T05:31:32.313Z,94583.53
2022-08-16T05:34:03.160Z,94581.72
2022-08-16T05:36:33.810Z,94574.97
2022-08-16T05:39:03.277Z,94574.13
2022-08-16T05:41:30.637Z,94571.38
2022-08-16T05:43:59.235Z,94576.22
2022-08-16T05:46:29.731Z,94586.25
2022-08-16T05:49:03.763Z,94588.47
2022-08-16T05:51:38.372Z,94590.88
2022-08-16T05:54:14.192Z,94593.44
2022-08-16T05:56:42.842Z,94588.88
2022-08-16T05:59:10.128Z,94592.44
2022-08-16T06:01:38.883Z,94601.09
2022-08-16T06:04:13.507Z,94600.38
2022-08-16T06:06:55.903Z,94601.66
2022-08-16T06:09:25.480Z,94599.66
2022-08-16T06:11:52.927Z,94598.34
2022-08-16T06:14:19.860Z,94591.69
2022-08-16T06:16:50.698Z,94594.09
2022-08-16T06:19:18.325Z,94588.47
2022-08-16T06:21:46.037Z,94588.38
2022-08-16T06:24:54.448Z,94590.72
2022-08-16T06:27:08.728Z,94594.81
2022-08-16T06:29:35.352Z,94599.09
2022-08-16T06:32:02.636Z,94600.19
2022-08-16T06:34:55.580Z,94602.47
2022-08-16T06:37:17.996Z,94603.97
2022-08-16T06:39:46.658Z,94607.47
2022-08-16T06:42:18.321Z,94607.53
2022-08-16T06:44:46.034Z,94606.69
2022-08-16T06:47:13.355Z,94611.00
2022-08-16T06:49:54.045Z,94611.59
2022-08-16T06:52:59.576Z,94617.50
2022-08-16T06:55:13.495Z,94616.50
2022-08-16T06:57:41.406Z,94617.97
2022-08-16T07:00:24.092Z,94618.13
2022-08-16T07:02:52.259Z,94614.59
2022-08-16T07:05:19.571Z,94609.47
2022-08-16T07:07:50.988Z,94609.00
2022-08-16T07:10:19.204Z,94613.38
2022-08-16T07:13:03.377Z,94607.53
2022-08-16T07:15:35.295Z,94613.63
2022-08-16T07:18:01.947Z,94620.00
2022-08-16T07:20:47.002Z,94614.34
2022-08-16T07:23:16.378Z,94606.75
2022-08-16T07:25:46.826Z,94608.16
2022-08-16T07:28:20.683Z,94602.41
2022-08-16T07:30:48.322Z,94602.72
2022-08-16T07:33:15.852Z,94604.28
2022-08-16T07:35:44.504Z,94612.97
2022-08-16T07:38:19.701Z,94611.31
2022-08-16T07:41:00.126Z,94616.47
2022-08-16T07:43:29.747Z,94614.97
2022-08-16T07:45:56.615Z,94623.50
2022-08-16T07:48:23.974Z,94620.47
2022-08-16T07:50:56.352Z,94609.22
2022-08-16T07:53:29.086Z,94610.25
2022-08-16T07:55:56.751Z,94607.03
2022-08-16T07:58:34.457Z,94610.66
2022-08-16T08:01:05.038Z,94617.56
2022-08-16T08:03:42.567Z,94611.13
2022-08-16T08:06:11.835Z,94612.25
2022-08-16T08:08:50.339Z,94612.84
2022-08-16T08:11:21.779Z,94610.06
2022-08-16T08:13:56.612Z,94612.44
2022-08-16T08:16:30.426Z,94619.06
2022-08-16T08:19:02.265Z,94618.63
2022-08-16T08:22:00.895Z,94627.38
2022-08-16T08:24:22.674Z,94622.44
2022-08-16T08:27:00.780Z,94629.88
2022-08-16T08:29:37.254Z,94622.72
2022-08-16T08:32:57.320Z,94616.34
2022-08-16T08:35:03.043Z,94622.88
2022-08-16T08:37:54.721Z,94626.00
2022-08-16T08:40:24.554Z,94629.09
2022-08-16T08:43:00.086Z,94626.16
2022-08-16T08:45:46.855Z,94625.19
2022-08-16T08:48:33.620Z,94633.81
2022-08-16T08:51:08.944Z,94639.50
2022-08-16T08:53:37.427Z,94634.00
2022-08-16T08:56:23.448Z,94636.47
2022-08-16T08:58:54.104Z,94642.13
2022-08-16T09:01:36.397Z,94648.66
2022-08-16T09:04:07.919Z,94647.22
2022-08-16T09:06:35.720Z,94651.97
2022-08-16T09:09:10.024Z,94643.75
2022-08-16T09:11:49.590Z,94649.81
2022-08-16T09:14:23.899Z,94642.03
2022-08-16T09:17:01.797Z,94656.28
2022-08-16T09:19:34.711Z,94653.28
2022-08-16T09:22:02.030Z,94654.00
2022-08-16T09:24:39.138Z,94650.78
2022-08-16T09:27:15.930Z,94661.97
2022-08-16T09:29:45.382Z,94669.16
2022-08-16T09:32:28.568Z,94652.78
2022-08-16T09:34:58.357Z,94646.44
2022-08-16T09:37:29.777Z,94640.59
2022-08-16T09:39:59.715Z,94650.16
2022-08-16T09:42:28.740Z,94644.41
2022-08-16T09:45:12.879Z,94643.84
2022-08-16T09:47:56.986Z,94643.94
2022-08-16T09:50:38.218Z,94638.81
2022-08-16T09:53:14.868Z,94642.25
2022-08-16T09:55:49.313Z,94640.94
2022-08-16T09:58:40.738Z,94635.31
2022-08-16T10:01:08.427Z,94640.75
2022-08-16T10:03:37.815Z,94643.50
2022-08-16T10:06:25.776Z,94638.56
2022-08-16T10:09:05.384Z,94638.59
2022-08-16T10:11:49.977Z,94639.88
2022-08-16T10:14:17.364Z,94641.31
2022-08-16T10:16:48.960Z,94642.50
2022-08-16T10:19:19.354Z,94637.28
2022-08-16T10:21:46.188Z,94641.19
2022-08-16T10:24:28.326Z,94635.06
2022-08-16T10:27:00.735Z,94630.00
2022-08-16T10:30:01.058Z,94634.72
2022-08-16T10:32:30.311Z,94633.03
2022-08-16T10:34:57.871Z,94628.78
2022-08-16T10:37:36.061Z,94631.91
2022-08-16T10:40:28.827Z,94626.13
2022-08-16T10:42:56.112Z,94627.13
2022-08-16T10:45:22.884Z,94630.88
2022-08-16T10:48:00.926Z,94625.56
2022-08-16T10:50:31.992Z,94630.19
2022-08-16T10:53:00.078Z,94622.78
2022-08-16T10:55:40.875Z,94622.59
2022-08-16T10:58:14.020Z,94624.16
2022-08-16T11:00:46.053Z,94622.06
2022-08-16T11:06:05.889Z,94613.72
2022-08-16T11:08:36.118Z,94620.88
2022-08-16T11:11:13.004Z,94616.41
2022-08-16T11:14:10.839Z,94620.50
2022-08-16T11:19:20.973Z,94618.75
2022-08-16T11:24:42.680Z,94627.28
2022-08-16T11:27:23.482Z,94612.91
2022-08-16T11:29:55.056Z,94612.47
2022-08-16T11:32:31.985Z,94609.56
2022-08-16T11:35:13.221Z,94614.50
2022-08-16T11:41:05.718Z,94615.84
2022-08-16T11:43:37.595Z,94615.56
2022-08-16T11:46:44.339Z,94616.34
2022-08-16T11:48:56.690Z,94609.41
2022-08-16T11:51:23.416Z,94609.16
2022-08-16T11:53:50.130Z,94606.06
2022-08-16T11:56:39.461Z,94603.84
2022-08-16T11:59:05.789Z,94604.75
2022-08-16T12:01:44.534Z,94612.63
2022-08-16T12:04:19.722Z,94606.66
2022-08-16T12:06:49.971Z,94607.53
2022-08-16T12:09:20.527Z,94593.19
2022-08-16T12:11:47.208Z,94594.88
2022-08-16T12:14:19.996Z,94595.22
2022-08-16T12:16:55.170Z,94597.50
2022-08-16T12:19:33.440Z,94596.94
2022-08-16T12:22:00.867Z,94591.41
2022-08-16T12:24:32.386Z,94598.09
2022-08-16T12:27:00.057Z,94585.66
2022-08-16T12:29:29.345Z,94590.13
2022-08-16T12:32:00.790Z,94587.25
2022-08-16T12:34:29.419Z,94587.53
2022-08-16T12:36:56.532Z,94586.50
2022-08-16T12:39:23.204Z,94588.06
2022-08-16T12:41:50.863Z,94586.97
2022-08-16T12:44:19.894Z,94588.13
2022-08-16T12:46:46.825Z,94581.28
2022-08-16T12:49:14.273Z,94573.94
2022-08-16T12:51:58.530Z,94576.25
2022-08-16T12:54:27.071Z,94576.47
2022-08-16T12:56:54.307Z,94571.25
2022-08-16T12:59:23.586Z,94572.97
2022-08-16T13:01:58.253Z,94566.28
2022-08-16T13:04:26.486Z,94570.59
2022-08-16T13:06:53.431Z,94565.13
2022-08-16T13:09:23.700Z,94567.03
2022-08-16T13:12:05.597Z,94552.22
2022-08-16T13:14:37.039Z,94555.84
2022-08-16T13:17:09.511Z,94561.44
2022-08-16T13:22:25.262Z,94551.75
2022-08-16T13:24:54.522Z,94551.69
2022-08-16T13:28:02.532Z,94540.09
2022-08-16T13:30:36.579Z,94539.50
2022-08-16T13:32:58.688Z,94548.72
2022-08-16T13:35:34.590Z,94547.59
2022-08-16T13:38:01.912Z,94538.19
2022-08-16T13:40:28.575Z,94533.06
2022-08-16T13:42:57.856Z,94532.09
2022-08-16T13:45:24.510Z,94516.88
2022-08-16T13:47:53.094Z,94515.63
2022-08-16T13:50:31.290Z,94525.13
2022-08-16T13:53:07.745Z,94518.34
2022-08-16T13:55:34.562Z,94512.56
2022-08-16T13:58:36.796Z,94511.34
2022-08-16T14:00:48.496Z,94520.56
2022-08-16T14:03:20.338Z,94512.16
2022-08-16T14:05:47.555Z,94507.66
2022-08-16T14:08:14.248Z,94505.63
2022-08-16T14:10:41.186Z,94495.66
2022-08-16T14:13:07.879Z,94502.94
2022-08-16T14:15:46.790Z,94500.22
2022-08-16T14:18:20.334Z,94491.06
2022-08-16T14:20:48.382Z,94480.47
2022-08-16T14:23:17.345Z,94477.41
2022-08-16T14:25:53.818Z,94479.47
2022-08-16T14:28:21.910Z,94475.03
2022-08-16T14:30:53.090Z,94480.75
2022-08-16T14:33:20.290Z,94475.31
2022-08-16T14:35:50.332Z,94476.97
2022-08-16T14:38:19.198Z,94477.69
2022-08-16T14:40:55.179Z,94471.69
2022-08-16T14:43:25.851Z,94470.28
2022-08-16T14:45:56.547Z,94471.28
2022-08-16T14:48:26.340Z,94468.75
2022-08-16T14:50:58.894Z,94475.56
2022-08-16T14:53:27.424Z,94469.81
2022-08-16T14:55:55.534Z,94471.03
2022-08-16T14:58:34.906Z,94470.81
2022-08-16T15:01:06.588Z,94465.88
2022-08-16T15:03:37.799Z,94459.47
2022-08-16T15:06:05.446Z,94459.19
2022-08-16T15:08:36.527Z,94458.25
2022-08-16T15:11:05.962Z,94457.56
2022-08-16T15:13:34.741Z,94447.88
2022-08-16T15:16:03.592Z,94445.25
2022-08-16T15:18:31.718Z,94448.53
2022-08-16T15:21:03.750Z,94451.78
2022-08-16T15:23:33.945Z,94445.63
2022-08-16T15:26:04.454Z,94438.53
2022-08-16T15:28:35.990Z,94438.94
2022-08-16T15:31:06.055Z,94441.94
2022-08-16T15:33:44.305Z,94438.94
2022-08-16T15:36:17.450Z,94440.56
2022-08-16T15:38:57.530Z,94432.41
2022-08-16T15:41:48.799Z,94428.19
2022-08-16T15:44:22.355Z,94430.19
2022-08-16T15:47:02.975Z,94419.00
2022-08-16T15:49:38.901Z,94418.72
2022-08-16T15:52:20.915Z,94430.16
2022-08-16T15:54:56.182Z,94427.44
2022-08-16T15:57:26.640Z,94421.69
2022-08-16T15:59:58.406Z,94417.03
2022-08-16T16:02:32.666Z,94417.38
2022-08-16T16:05:04.441Z,94419.81
2022-08-16T16:07:33.405Z,94421.31
2022-08-16T16:10:04.059Z,94415.09
2022-08-16T16:12:50.906Z,94412.38
2022-08-16T16:15:22.700Z,94417.09
2022-08-16T16:17:52.185Z,94410.75
2022-08-16T16:20:21.804Z,94418.22
2022-08-16T16:22:48.860Z,94410.25
2022-08-16T16:25:18.692Z,94405.09
2022-08-16T16:27:46.046Z,94412.44
2022-08-16T16:30:38.122Z,94402.38
2022-08-16T16:33:01.576Z,94400.56
2022-08-16T16:35:32.884Z,94402.00
2022-08-16T16:38:00.623Z,94392.97
2022-08-16T16:40:33.197Z,94397.91
2022-08-16T16:43:02.926Z,94391.81
2022-08-16T16:45:34.749Z,94393.06
2022-08-16T16:48:12.474Z,94385.25
2022-08-16T16:50:45.378Z,94386.22
2022-08-16T16:53:17.585Z,94386.41
2022-08-16T16:55:51.745Z,94385.72
2022-08-16T16:58:35.582Z,94377.84
2022-08-16T17:01:04.088Z,94374.88
2022-08-16T17:03:32.648Z,94369.78
2022-08-16T17:06:03.202Z,94366.38
2022-08-16T17:08:36.364Z,94370.09
2022-08-16T17:11:03.826Z,94370.97
2022-08-16T17:13:31.393Z,94374.66
2022-08-16T17:15:58.850Z,94364.31
2022-08-16T17:19:01.987Z,94360.72
2022-08-16T17:21:12.352Z,94360.50
2022-08-16T17:23:58.609Z,94359.72
2022-08-16T17:26:30.065Z,94354.38
2022-08-16T17:29:02.622Z,94352.59
2022-08-16T17:31:40.788Z,94358.09
2022-08-16T17:34:31.077Z,94356.47
2022-08-16T17:37:05.400Z,94345.25
2022-08-16T17:39:35.248Z,94356.13
2022-08-16T17:42:21.547Z,94357.84
2022-08-16T17:44:52.885Z,94360.75
2022-08-16T17:47:21.806Z,94360.91
2022-08-16T17:49:48.555Z,94367.19
2022-08-16T17:52:15.610Z,94374.59
2022-08-16T17:54:42.257Z,94372.19
2022-08-16T17:57:08.890Z,94370.50
2022-08-16T17:59:40.951Z,94374.38
2022-08-16T18:02:42.715Z,94366.50
2022-08-16T18:04:55.879Z,94370.63
2022-08-16T18:07:23.033Z,94369.38
2022-08-16T18:09:49.802Z,94373.44
2022-08-16T18:12:54.978Z,94380.31
2022-08-16T18:15:11.921Z,94373.03
2022-08-16T18:17:39.258Z,94381.00
2022-08-16T18:20:09.189Z,94384.75
2022-08-16T18:22:35.851Z,94382.69
2022-08-16T18:25:05.714Z,94381.84
2022-08-16T18:27:32.329Z,94383.78
2022-08-16T18:29:59.096Z,94387.66
2022-08-16T18:32:26.410Z,94392.91
2022-08-16T18:34:54.723Z,94395.31
2022-08-16T18:37:23.722Z,94394.47
2022-08-16T18:39:50.477Z,94389.75
2022-08-16T18:42:17.173Z,94390.94
2022-08-16T18:44:44.459Z,94386.00
2022-08-16T18:47:11.411Z,94389.41
2022-08-16T18:49:38.727Z,94387.00
2022-08-16T18:52:06.206Z,94389.06
2022-08-16T18:54:33.846Z,94390.31
2022-08-16T18:57:20.470Z,94395.47
2022-08-16T18:59:47.133Z,94396.19
2022-08-16T19:02:56.905Z,94399.66
2022-08-16T19:05:15.108Z,94396.09
2022-08-16T19:07:41.862Z,94410.25
2022-08-16T19:10:09.456Z,94416.69
2022-08-16T19:12:41.844Z,94411.84
2022-08-16T19:15:23.541Z,94422.78
2022-08-16T19:17:50.177Z,94419.25
2022-08-16T19:20:23.147Z,94424.56
2022-08-16T19:23:10.289Z,94422.66
2022-08-16T19:25:48.601Z,94423.28
2022-08-16T19:28:50.170Z,94422.25
2022-08-16T19:31:22.758Z,94423.63
2022-08-16T19:33:53.694Z,94424.84
2022-08-16T19:36:31.529Z,94424.88
2022-08-16T19:39:09.846Z,94422.19
2022-08-16T19:41:43.698Z,94433.53
2022-08-16T19:44:11.535Z,94434.50
2022-08-16T19:46:39.067Z,94433.03
2022-08-16T19:49:05.779Z,94435.72
2022-08-16T19:51:35.701Z,94436.00
2022-08-16T19:54:04.657Z,94434.53
2022-08-16T19:56:31.346Z,94443.53
2022-08-16T20:01:44.688Z,94441.50
2022-08-16T20:04:11.709Z,94438.88
2022-08-16T20:06:39.071Z,94442.94
2022-08-16T20:09:06.057Z,94444.78
2022-08-16T20:11:33.265Z,94442.78
2022-08-16T20:14:00.342Z,94435.03
2022-08-16T20:16:26.993Z,94437.53
2022-08-16T20:18:53.968Z,94428.63
2022-08-16T20:21:20.647Z,94435.19
2022-08-16T20:23:47.358Z,94430.78
2022-08-16T20:26:14.011Z,94434.72
2022-08-16T20:28:52.483Z,94438.72
2022-08-16T20:31:22.517Z,94442.78
2022-08-16T20:33:50.098Z,94447.94
2022-08-16T20:36:17.750Z,94457.28
2022-08-16T20:38:45.310Z,94455.50
2022-08-16T20:41:11.979Z,94449.63
2022-08-16T20:43:38.638Z,94452.69
2022-08-16T20:46:05.336Z,94462.22
2022-08-16T20:48:31.974Z,94463.50
2022-08-16T20:50:58.593Z,94461.88
2022-08-16T20:53:25.314Z,94470.53
2022-08-16T20:55:52.053Z,94474.00
2022-08-16T20:58:18.692Z,94479.56
2022-08-16T21:00:45.513Z,94474.53
2022-08-16T21:03:13.590Z,94481.13
2022-08-16T21:05:40.345Z,94488.59
2022-08-16T21:08:26.779Z,94502.69
2022-08-16T21:10:54.315Z,94506.94
2022-08-16T21:13:20.998Z,94506.81
2022-08-16T21:15:48.104Z,94516.59
2022-08-16T21:18:15.014Z,94534.31
2022-08-16T21:20:41.657Z,94549.84
2022-08-16T21:23:09.732Z,94559.63
2022-08-16T21:25:39.647Z,94562.38
2022-08-16T21:28:39.480Z,94564.72
2022-08-16T21:31:08.272Z,94542.53
2022-08-16T21:33:36.251Z,94541.25
2022-08-16T21:36:03.181Z,94539.88
2022-08-16T21:38:30.757Z,94534.50
2022-08-16T21:41:03.767Z,94539.25
2022-08-16T21:43:30.462Z,94544.22
2022-08-16T21:45:57.633Z,94535.97
2022-08-16T21:48:35.016Z,94558.25
2022-08-16T21:51:07.978Z,94570.00
2022-08-16T21:53:35.433Z,94572.44
2022-08-16T21:56:03.938Z,94566.78
2022-08-16T21:58:31.384Z,94574.25
2022-08-16T22:00:58.605Z,94578.41
2022-08-16T22:03:25.277Z,94571.75
2022-08-16T22:06:13.456Z,94566.31
2022-08-16T22:08:49.201Z,94575.50
2022-08-16T22:11:23.907Z,94574.56
2022-08-16T22:13:58.786Z,94575.56
2022-08-16T22:16:28.788Z,94581.72
2022-08-16T22:18:55.459Z,94588.56
2022-08-16T22:21:22.505Z,94594.25
2022-08-16T22:23:55.167Z,94606.03
2022-08-16T22:26:30.397Z,94609.66
2022-08-16T22:28:59.381Z,94616.63
2022-08-16T22:31:26.021Z,94621.41
2022-08-16T22:33:52.858Z,94620.13
2022-08-16T22:36:19.498Z,94626.00
2022-08-16T22:38:56.672Z,94608.72
2022-08-16T22:41:24.343Z,94615.22
2022-08-16T22:43:51.018Z,94639.00
2022-08-16T22:46:17.656Z,94657.09
2022-08-16T22:48:44.307Z,94660.84
2022-08-16T22:51:10.992Z,94660.25
2022-08-16T22:53:37.657Z,94651.94
2022-08-16T22:56:04.922Z,94645.34
2022-08-16T22:58:36.390Z,94648.81
2022-08-16T23:01:05.418Z,94643.72
2022-08-16T23:03:32.077Z,94646.72
2022-08-16T23:06:00.650Z,94660.81
2022-08-16T23:08:39.568Z,94658.50
2022-08-16T23:11:16.880Z,94655.34
2022-08-16T23:13:50.674Z,94650.38
2022-08-16T23:16:25.107Z,94666.06
2022-08-16T23:19:01.347Z,94662.19
2022-08-16T23:21:27.981Z,94655.88
2022-08-16T23:23:54.644Z,94647.53
2022-08-16T23:26:45.298Z,94642.75
2022-08-16T23:29:15.838Z,94642.03
2022-08-16T23:31:57.066Z,94638.34
2022-08-16T23:34:24.550Z,94633.00
2022-08-16T23:36:51.505Z,94638.66
2022-08-16T23:39:18.632Z,94636.84
2022-08-16T23:41:45.349Z,94629.69
2022-08-16T23:44:55.974Z,94624.72
2022-08-16T23:46:58.703Z,94627.63
2022-08-16T23:49:58.178Z,94620.59
2022-08-16T23:52:12.123Z,94626.50
2022-08-16T23:54:38.912Z,94628.22
2022-08-16T23:57:05.619Z,94624.53
2022-08-16T23:59:36.769Z,94637.25
